createdAt,value
2022-08-10T00:01:54.298Z,20.90
2022-08-10T00:04:23.444Z,20.90
2022-08-10T00:06:55.332Z,20.90
2022-08-10T00:09:23.871Z,20.80
2022-08-10T00:11:50.824Z,20.80
2022-08-10T00:14:17.863Z,20.80
2022-08-10T00:16:44.861Z,20.80
2022-08-10T00:19:11.882Z,20.80
2022-08-10T00:21:39.350Z,20.80
2022-08-10T00:24:06.473Z,20.90
2022-08-10T00:27:52.496Z,20.90
2022-08-10T00:29:21.605Z,20.90
2022-08-10T00:31:58.690Z,20.90
2022-08-10T00:34:30.920Z,20.90
2022-08-10T00:36:58.785Z,20.90
2022-08-10T00:39:26.523Z,21.00
2022-08-10T00:42:01.931Z,21.00
2022-08-10T00:44:43.881Z,21.00
2022-08-10T00:47:36.287Z,20.90
2022-08-10T00:49:59.940Z,20.90
2022-08-10T00:52:29.143Z,20.90
2022-08-10T00:54:56.942Z,20.90
2022-08-10T00:57:25.613Z,20.90
2022-08-10T00:59:59.371Z,20.90
2022-08-10T01:02:32.815Z,20.90
2022-08-10T01:05:03.542Z,20.90
2022-08-10T01:07:53.432Z,20.90
2022-08-10T01:10:42.151Z,20.90
2022-08-10T01:13:32.397Z,20.90
2022-08-10T01:16:20.845Z,20.90
2022-08-10T01:19:08.596Z,20.90
2022-08-10T01:22:08.869Z,20.80
2022-08-10T01:25:04.595Z,20.80
2022-08-10T01:27:39.462Z,20.90
2022-08-10T01:30:11.285Z,20.90
2022-08-10T01:32:48.154Z,20.80
2022-08-10T01:35:36.848Z,20.80
2022-08-10T01:38:17.049Z,20.80
2022-08-10T01:40:54.660Z,20.80
2022-08-10T01:43:22.557Z,20.70
2022-08-10T01:45:57.018Z,20.70
2022-08-10T01:48:33.655Z,20.60
2022-08-10T01:51:11.057Z,20.60
2022-08-10T01:53:44.409Z,20.60
2022-08-10T01:56:14.262Z,20.60
2022-08-10T01:58:43.816Z,20.60
2022-08-10T02:01:17.610Z,20.50
2022-08-10T02:04:03.530Z,20.50
2022-08-10T02:06:35.186Z,20.40
2022-08-10T02:09:06.495Z,20.30
2022-08-10T02:12:05.430Z,20.30
2022-08-10T02:14:33.345Z,20.30
2022-08-10T02:17:05.447Z,20.30
2022-08-10T02:19:35.802Z,20.20
2022-08-10T02:22:34.894Z,20.20
2022-08-10T02:24:52.643Z,20.20
2022-08-10T02:27:22.911Z,20.10
2022-08-10T02:29:53.166Z,20.10
2022-08-10T02:32:36.021Z,20.10
2022-08-10T02:35:07.631Z,20.10
2022-08-10T02:37:37.421Z,20.10
2022-08-10T02:40:05.090Z,20.10
2022-08-10T02:45:18.408Z,20.10
2022-08-10T02:45:32.101Z,20.00
2022-08-10T02:48:01.967Z,20.00
2022-08-10T02:50:32.549Z,20.00
2022-08-10T02:53:05.522Z,20.00
2022-08-10T02:55:55.474Z,20.00
2022-08-10T02:58:29.398Z,20.00
2022-08-10T03:00:57.338Z,20.00
2022-08-10T03:03:29.267Z,20.00
2022-08-10T03:06:01.529Z,20.00
2022-08-10T03:08:34.226Z,19.90
2022-08-10T03:11:04.794Z,19.90
2022-08-10T03:13:33.109Z,19.80
2022-08-10T03:16:02.629Z,19.80
2022-08-10T03:18:31.989Z,19.80
2022-08-10T03:20:59.598Z,19.80
2022-08-10T03:23:28.105Z,19.80
2022-08-10T03:25:58.388Z,19.80
2022-08-10T03:28:30.251Z,19.80
2022-08-10T03:31:00.491Z,19.80
2022-08-10T03:33:31.117Z,19.80
2022-08-10T03:36:42.879Z,19.80
2022-08-10T03:38:46.254Z,19.80
2022-08-10T03:41:16.064Z,19.70
2022-08-10T03:43:47.646Z,19.70
2022-08-10T03:46:18.512Z,19.70
2022-08-10T03:48:49.701Z,19.60
2022-08-10T03:51:19.302Z,19.60
2022-08-10T03:54:04.368Z,19.70
2022-08-10T03:56:39.040Z,19.70
2022-08-10T03:59:12.143Z,19.70
2022-08-10T04:02:46.061Z,19.60
2022-08-10T04:04:27.418Z,19.60
2022-08-10T04:06:59.234Z,19.60
2022-08-10T04:09:43.469Z,19.60
2022-08-10T04:12:16.520Z,19.60
2022-08-10T04:14:51.385Z,19.60
2022-08-10T04:17:57.111Z,19.60
2022-08-10T04:20:39.263Z,19.60
2022-08-10T04:23:15.837Z,19.60
2022-08-10T04:25:42.921Z,19.60
2022-08-10T04:28:11.622Z,19.60
2022-08-10T04:30:39.740Z,19.60
2022-08-10T04:33:09.091Z,19.60
2022-08-10T04:35:37.165Z,19.70
2022-08-10T04:38:05.799Z,19.60
2022-08-10T04:40:32.958Z,19.60
2022-08-10T04:43:11.322Z,19.60
2022-08-10T04:45:47.837Z,19.70
2022-08-10T04:48:40.392Z,19.70
2022-08-10T04:51:05.311Z,19.70
2022-08-10T04:53:32.505Z,19.70
2022-08-10T04:55:59.493Z,19.80
2022-08-10T04:58:26.327Z,19.80
2022-08-10T05:00:53.349Z,19.80
2022-08-10T05:03:20.203Z,19.80
2022-08-10T05:05:47.120Z,19.80
2022-08-10T05:08:15.524Z,19.90
2022-08-10T05:10:42.373Z,20.00
2022-08-10T05:13:09.279Z,20.00
2022-08-10T05:15:36.293Z,20.10
2022-08-10T05:18:09.482Z,20.10
2022-08-10T05:20:39.073Z,20.10
2022-08-10T05:23:06.102Z,20.10
2022-08-10T05:25:38.035Z,20.20
2022-08-10T05:28:06.796Z,20.30
2022-08-10T05:30:34.372Z,20.30
2022-08-10T05:33:05.124Z,20.30
2022-08-10T05:35:56.372Z,20.30
2022-08-10T05:38:24.846Z,20.30
2022-08-10T05:40:52.440Z,20.30
2022-08-10T05:43:21.324Z,20.40
2022-08-10T05:46:19.743Z,20.30
2022-08-10T05:48:54.900Z,20.40
2022-08-10T05:51:25.605Z,20.40
2022-08-10T05:54:02.075Z,20.40
2022-08-10T05:56:56.807Z,20.50
2022-08-10T06:00:34.922Z,20.50
2022-08-10T06:02:33.485Z,20.60
2022-08-10T06:05:09.290Z,20.70
2022-08-10T06:07:41.117Z,20.70
2022-08-10T06:10:12.198Z,20.80
2022-08-10T06:12:55.753Z,20.80
2022-08-10T06:15:50.164Z,20.80
2022-08-10T06:18:15.704Z,20.90
2022-08-10T06:20:43.734Z,20.90
2022-08-10T06:23:12.837Z,20.90
2022-08-10T06:26:12.027Z,20.90
2022-08-10T06:28:31.350Z,20.90
2022-08-10T06:31:00.262Z,20.90
2022-08-10T06:33:31.149Z,21.00
2022-08-10T06:35:59.315Z,21.00
2022-08-10T06:38:30.865Z,21.00
2022-08-10T06:41:00.379Z,21.00
2022-08-10T06:43:29.252Z,21.10
2022-08-10T06:46:07.289Z,21.10
2022-08-10T06:48:41.928Z,21.20
2022-08-10T06:51:15.384Z,21.20
2022-08-10T06:53:52.974Z,21.20
2022-08-10T06:56:36.727Z,21.20
2022-08-10T06:59:26.337Z,21.30
2022-08-10T07:02:03.671Z,21.30
2022-08-10T07:04:50.770Z,21.30
2022-08-10T07:07:22.318Z,21.40
2022-08-10T07:09:51.321Z,21.40
2022-08-10T07:12:20.971Z,21.40
2022-08-10T07:14:51.380Z,21.50
2022-08-10T07:17:21.682Z,21.50
2022-08-10T07:19:59.808Z,21.50
2022-08-10T07:23:22.869Z,21.50
2022-08-10T07:25:25.138Z,21.60
2022-08-10T07:27:58.524Z,21.60
2022-08-10T07:30:29.551Z,21.70
2022-08-10T07:32:57.516Z,21.70
2022-08-10T07:35:27.113Z,21.80
2022-08-10T07:37:55.448Z,21.80
2022-08-10T07:40:23.728Z,21.80
2022-08-10T07:42:56.271Z,21.80
2022-08-10T07:45:25.856Z,21.80
2022-08-10T07:48:03.715Z,21.90
2022-08-10T07:50:36.340Z,21.90
2022-08-10T07:53:04.693Z,22.10
2022-08-10T07:56:02.865Z,22.10
2022-08-10T07:58:24.789Z,22.10
2022-08-10T08:00:54.008Z,22.20
2022-08-10T08:03:28.313Z,22.20
2022-08-10T08:06:03.051Z,22.30
2022-08-10T08:08:33.728Z,22.40
2022-08-10T08:11:02.813Z,22.40
2022-08-10T08:13:30.726Z,22.50
2022-08-10T08:16:20.163Z,22.60
2022-08-10T08:19:16.475Z,22.70
2022-08-10T08:24:15.035Z,22.70
2022-08-10T08:24:31.616Z,22.80
2022-08-10T08:27:00.506Z,22.80
2022-08-10T08:29:28.427Z,22.90
2022-08-10T08:32:02.695Z,22.90
2022-08-10T08:34:32.480Z,22.90
2022-08-10T08:37:01.239Z,22.90
2022-08-10T08:39:29.234Z,22.90
2022-08-10T08:42:24.166Z,22.90
2022-08-10T08:45:07.835Z,22.90
2022-08-10T08:48:06.428Z,22.90
2022-08-10T08:51:01.773Z,22.90
2022-08-10T08:54:01.207Z,22.90
2022-08-10T08:56:54.756Z,23.00
2022-08-10T08:59:47.429Z,23.00
2022-08-10T09:02:24.216Z,23.10
2022-08-10T09:05:28.509Z,23.10
2022-08-10T09:08:17.544Z,23.10
2022-08-10T09:11:06.385Z,23.20
2022-08-10T09:13:57.665Z,23.20
2022-08-10T09:16:33.623Z,23.30
2022-08-10T09:19:38.393Z,23.30
2022-08-10T09:22:30.999Z,23.30
2022-08-10T09:25:23.192Z,23.40
2022-08-10T09:28:07.843Z,23.50
2022-08-10T09:31:19.147Z,23.50
2022-08-10T09:36:24.243Z,23.60
2022-08-10T09:37:01.056Z,23.70
2022-08-10T09:40:12.268Z,23.70
2022-08-10T09:43:02.004Z,23.80
2022-08-10T09:45:58.505Z,23.80
2022-08-10T09:48:37.407Z,24.00
2022-08-10T09:51:44.760Z,23.90
2022-08-10T09:54:38.160Z,23.90
2022-08-10T09:57:44.379Z,23.90
2022-08-10T10:00:12.899Z,23.90
2022-08-10T10:03:01.481Z,23.90
2022-08-10T10:05:52.675Z,23.90
2022-08-10T10:08:42.623Z,23.90
2022-08-10T10:11:09.936Z,23.90
2022-08-10T10:14:02.871Z,23.90
2022-08-10T10:16:52.479Z,24.00
2022-08-10T10:19:56.963Z,24.10
2022-08-10T10:23:01.554Z,24.20
2022-08-10T10:25:50.976Z,24.20
2022-08-10T10:29:19.602Z,24.20
2022-08-10T10:31:42.467Z,24.30
2022-08-10T10:34:23.284Z,24.20
2022-08-10T10:36:52.270Z,24.20
2022-08-10T10:39:24.075Z,24.20
2022-08-10T10:42:18.583Z,24.10
2022-08-10T10:45:00.427Z,24.10
2022-08-10T10:47:46.675Z,24.10
2022-08-10T10:50:19.691Z,24.20
2022-08-10T10:52:57.107Z,24.20
2022-08-10T10:56:13.539Z,24.20
2022-08-10T10:58:54.915Z,24.20
2022-08-10T11:01:21.787Z,24.20
2022-08-10T11:04:16.215Z,24.20
2022-08-10T11:07:16.343Z,24.20
2022-08-10T11:10:05.351Z,24.30
2022-08-10T11:13:02.996Z,24.30
2022-08-10T11:16:17.941Z,24.40
2022-08-10T11:19:03.657Z,24.40
2022-08-10T11:21:52.350Z,24.40
2022-08-10T11:24:47.593Z,24.60
2022-08-10T11:27:48.939Z,24.60
2022-08-10T11:30:39.484Z,24.60
2022-08-10T11:33:32.606Z,24.70
2022-08-10T11:36:05.855Z,24.80
2022-08-10T11:39:14.536Z,24.80
2022-08-10T11:42:10.150Z,24.80
2022-08-10T11:44:54.338Z,24.70
2022-08-10T11:47:27.715Z,24.70
2022-08-10T11:50:08.493Z,24.80
2022-08-10T11:52:58.937Z,24.90
2022-08-10T11:55:34.620Z,24.90
2022-08-10T11:58:26.827Z,25.00
2022-08-10T12:01:02.171Z,25.10
2022-08-10T12:03:35.008Z,25.10
2022-08-10T12:06:05.648Z,25.20
2022-08-10T12:10:06.057Z,25.30
2022-08-10T12:11:26.800Z,25.30
2022-08-10T12:14:23.973Z,25.30
2022-08-10T12:16:59.457Z,25.30
2022-08-10T12:19:59.734Z,25.30
2022-08-10T12:23:06.745Z,25.40
2022-08-10T12:25:56.385Z,25.50
2022-08-10T12:28:49.950Z,25.40
2022-08-10T12:31:29.715Z,25.40
2022-08-10T12:34:21.893Z,25.30
2022-08-10T12:37:14.265Z,25.30
2022-08-10T12:39:52.252Z,25.20
2022-08-10T12:42:43.135Z,25.20
2022-08-10T12:45:37.791Z,25.20
2022-08-10T12:48:23.431Z,25.20
2022-08-10T12:51:30.506Z,25.30
2022-08-10T12:54:03.510Z,25.30
2022-08-10T12:56:47.075Z,25.30
2022-08-10T12:59:16.802Z,25.40
2022-08-10T13:02:10.192Z,25.40
2022-08-10T13:04:40.172Z,25.50
2022-08-10T13:07:09.375Z,25.50
2022-08-10T13:09:55.410Z,25.60
2022-08-10T13:12:34.853Z,25.60
2022-08-10T13:15:48.475Z,25.60
2022-08-10T13:18:25.016Z,25.70
2022-08-10T13:20:54.903Z,25.70
2022-08-10T13:23:26.970Z,25.70
2022-08-10T13:25:57.958Z,25.60
2022-08-10T13:28:49.526Z,25.60
2022-08-10T13:32:03.224Z,25.60
2022-08-10T13:34:40.882Z,25.60
2022-08-10T13:37:15.565Z,25.50
2022-08-10T13:39:59.870Z,25.50
2022-08-10T13:42:34.497Z,25.50
2022-08-10T13:45:11.310Z,25.40
2022-08-10T13:47:48.920Z,25.40
2022-08-10T13:50:33.608Z,25.40
2022-08-10T13:53:13.907Z,25.40
2022-08-10T13:55:56.355Z,25.50
2022-08-10T13:58:30.599Z,25.50
2022-08-10T14:01:02.992Z,25.50
2022-08-10T14:03:37.541Z,25.60
2022-08-10T14:06:06.982Z,25.60
2022-08-10T14:08:35.490Z,25.70
2022-08-10T14:11:11.010Z,25.80
2022-08-10T14:13:50.876Z,26.00
2022-08-10T14:16:19.421Z,26.00
2022-08-10T14:18:49.520Z,26.00
2022-08-10T14:21:16.699Z,26.10
2022-08-10T14:23:52.671Z,26.20
2022-08-10T14:26:24.496Z,26.20
2022-08-10T14:28:58.203Z,26.20
2022-08-10T14:31:31.191Z,26.20
2022-08-10T14:34:00.953Z,26.10
2022-08-10T14:36:39.891Z,26.10
2022-08-10T14:39:08.895Z,26.10
2022-08-10T14:42:05.369Z,26.10
2022-08-10T14:44:30.293Z,26.10
2022-08-10T14:47:05.126Z,26.00
2022-08-10T14:49:58.218Z,25.90
2022-08-10T14:52:27.373Z,25.90
2022-08-10T14:54:56.623Z,26.00
2022-08-10T14:57:24.764Z,26.00
2022-08-10T15:00:29.383Z,26.00
2022-08-10T15:03:02.412Z,25.90
2022-08-10T15:05:39.503Z,25.90
2022-08-10T15:08:10.379Z,25.90
2022-08-10T15:10:39.474Z,25.90
2022-08-10T15:13:34.257Z,25.90
2022-08-10T15:16:12.427Z,25.90
2022-08-10T15:18:58.285Z,25.90
2022-08-10T15:21:42.874Z,25.90
2022-08-10T15:24:37.192Z,26.00
2022-08-10T15:27:08.599Z,25.90
2022-08-10T15:29:57.397Z,25.90
2022-08-10T15:32:54.850Z,25.90
2022-08-10T15:35:44.260Z,25.90
2022-08-10T15:38:14.176Z,25.80
2022-08-10T15:40:54.451Z,25.80
2022-08-10T15:43:27.797Z,25.80
2022-08-10T15:46:30.046Z,25.80
2022-08-10T15:49:01.994Z,25.80
2022-08-10T15:51:53.534Z,25.80
2022-08-10T15:54:33.482Z,25.80
2022-08-10T15:57:09.618Z,25.80
2022-08-10T15:59:57.911Z,25.90
2022-08-10T16:02:28.648Z,26.00
2022-08-10T16:06:00.499Z,26.00
2022-08-10T16:08:24.170Z,26.00
2022-08-10T16:10:54.325Z,26.00
2022-08-10T16:13:57.316Z,26.00
2022-08-10T16:16:12.446Z,25.90
2022-08-10T16:18:42.652Z,25.90
2022-08-10T16:21:22.536Z,25.90
2022-08-10T16:24:15.704Z,25.90
2022-08-10T16:26:50.427Z,25.80
2022-08-10T16:29:22.811Z,25.90
2022-08-10T16:31:59.679Z,25.90
2022-08-10T16:34:28.894Z,25.80
2022-08-10T16:36:57.737Z,25.70
2022-08-10T16:39:57.601Z,25.70
2022-08-10T16:42:20.685Z,25.70
2022-08-10T16:45:10.625Z,25.70
2022-08-10T16:47:45.337Z,25.70
2022-08-10T16:50:16.952Z,25.70
2022-08-10T16:52:45.739Z,25.70
2022-08-10T16:55:24.662Z,25.70
2022-08-10T16:58:12.317Z,25.60
2022-08-10T17:00:40.651Z,25.60
2022-08-10T17:03:22.833Z,25.60
2022-08-10T17:06:03.342Z,25.70
2022-08-10T17:08:48.292Z,25.50
2022-08-10T17:11:17.725Z,25.50
2022-08-10T17:13:45.004Z,25.50
2022-08-10T17:16:13.492Z,25.50
2022-08-10T17:18:46.786Z,25.50
2022-08-10T17:21:22.852Z,25.50
2022-08-10T17:23:54.057Z,25.40
2022-08-10T17:26:35.275Z,25.40
2022-08-10T17:29:58.923Z,25.40
2022-08-10T17:32:19.646Z,25.40
2022-08-10T17:34:50.179Z,25.40
2022-08-10T17:37:20.592Z,25.30
2022-08-10T17:39:56.416Z,25.30
2022-08-10T17:42:26.254Z,25.30
2022-08-10T17:44:55.356Z,25.30
2022-08-10T17:47:27.255Z,25.30
2022-08-10T17:49:57.046Z,25.30
2022-08-10T17:52:27.250Z,25.30
2022-08-10T17:54:57.313Z,25.30
2022-08-10T17:57:25.548Z,25.30
2022-08-10T17:59:54.703Z,25.30
2022-08-10T18:02:27.288Z,25.30
2022-08-10T18:04:57.768Z,25.30
2022-08-10T18:07:36.033Z,25.30
2022-08-10T18:10:05.394Z,25.20
2022-08-10T18:12:45.048Z,25.20
2022-08-10T18:15:15.816Z,25.10
2022-08-10T18:17:47.174Z,25.10
2022-08-10T18:20:20.149Z,25.00
2022-08-10T18:22:50.790Z,24.90
2022-08-10T18:25:27.623Z,24.90
2022-08-10T18:28:04.209Z,24.80
2022-08-10T18:30:36.657Z,24.80
2022-08-10T18:33:08.575Z,24.70
2022-08-10T18:35:35.661Z,24.60
2022-08-10T18:38:04.527Z,24.60
2022-08-10T18:40:35.716Z,24.60
2022-08-10T18:44:05.867Z,24.50
2022-08-10T18:45:57.158Z,24.40
2022-08-10T18:48:33.385Z,24.40
2022-08-10T18:51:05.898Z,24.40
2022-08-10T18:53:48.424Z,24.30
2022-08-10T18:56:21.643Z,24.30
2022-08-10T18:59:11.681Z,24.30
2022-08-10T19:01:58.239Z,24.20
2022-08-10T19:04:37.108Z,24.10
2022-08-10T19:07:34.392Z,24.00
2022-08-10T19:10:18.042Z,23.90
2022-08-10T19:12:50.197Z,23.90
2022-08-10T19:15:28.800Z,23.80
2022-08-10T19:18:30.276Z,23.80
2022-08-10T19:21:28.595Z,23.80
2022-08-10T19:24:19.687Z,23.70
2022-08-10T19:27:23.691Z,23.70
2022-08-10T19:30:11.891Z,23.60
2022-08-10T19:32:54.892Z,23.60
2022-08-10T19:36:03.328Z,23.60
2022-08-10T19:38:51.403Z,23.50
2022-08-10T19:41:44.278Z,23.50
2022-08-10T19:44:40.356Z,23.40
2022-08-10T19:47:23.428Z,23.40
2022-08-10T19:49:53.664Z,23.30
2022-08-10T19:52:32.145Z,23.30
2022-08-10T19:55:31.513Z,23.30
2022-08-10T19:57:58.356Z,23.20
2022-08-10T20:00:40.944Z,23.20
2022-08-10T20:03:16.941Z,23.20
2022-08-10T20:06:18.390Z,23.20
2022-08-10T20:09:08.130Z,23.20
2022-08-10T20:11:56.753Z,23.10
2022-08-10T20:14:48.389Z,23.10
2022-08-10T20:17:51.011Z,23.10
2022-08-10T20:20:31.492Z,23.00
2022-08-10T20:23:42.874Z,23.00
2022-08-10T20:26:29.586Z,23.00
2022-08-10T20:29:58.680Z,22.90
2022-08-10T20:32:25.889Z,22.90
2022-08-10T20:35:05.881Z,22.80
2022-08-10T20:38:03.856Z,22.80
2022-08-10T20:40:45.517Z,22.80
2022-08-10T20:43:27.302Z,22.70
2022-08-10T20:46:08.910Z,22.70
2022-08-10T20:48:56.763Z,22.70
2022-08-10T20:51:58.696Z,22.60
2022-08-10T20:54:20.284Z,22.60
2022-08-10T20:57:54.275Z,22.60
2022-08-10T21:00:14.114Z,22.60
2022-08-10T21:03:21.015Z,22.50
2022-08-10T21:06:06.513Z,22.60
2022-08-10T21:08:49.423Z,22.50
2022-08-10T21:11:24.542Z,22.50
2022-08-10T21:14:10.323Z,22.50
2022-08-10T21:17:03.151Z,22.50
2022-08-10T21:20:08.263Z,22.50
2022-08-10T21:22:45.784Z,22.40
2022-08-10T21:25:26.066Z,22.40
2022-08-10T21:27:59.654Z,22.40
2022-08-10T21:30:51.073Z,22.30
2022-08-10T21:33:37.183Z,22.30
2022-08-10T21:36:34.897Z,22.30
2022-08-10T21:39:10.575Z,22.30
2022-08-10T21:42:02.856Z,22.20
2022-08-10T21:45:16.750Z,22.20
2022-08-10T21:48:17.444Z,22.20
2022-08-10T21:51:25.110Z,22.10
2022-08-10T21:54:56.758Z,22.10
2022-08-10T21:58:24.120Z,22.00
2022-08-10T22:01:39.797Z,22.00
2022-08-10T22:04:26.494Z,21.90
2022-08-10T22:10:25.670Z,21.80
2022-08-10T22:13:12.667Z,21.70
2022-08-10T22:16:11.476Z,21.70
2022-08-10T22:19:03.691Z,21.70
2022-08-10T22:22:27.585Z,21.80
2022-08-10T22:25:49.165Z,21.70
2022-08-10T22:28:38.236Z,21.70
2022-08-10T22:32:09.556Z,21.60
2022-08-10T22:35:09.259Z,21.60
2022-08-10T22:38:13.028Z,21.60
2022-08-10T22:41:03.312Z,21.60
2022-08-10T22:43:51.799Z,21.60
2022-08-10T22:46:45.927Z,21.60
2022-08-10T22:49:13.608Z,21.60
2022-08-10T22:52:05.087Z,21.60
2022-08-10T22:54:57.322Z,21.60
2022-08-10T22:57:43.345Z,21.60
2022-08-10T23:00:14.774Z,21.60
2022-08-10T23:02:56.057Z,21.50
2022-08-10T23:05:35.945Z,21.50
2022-08-10T23:08:29.718Z,21.50
2022-08-10T23:11:04.214Z,21.50
2022-08-10T23:13:38.939Z,21.40
2022-08-10T23:16:32.037Z,21.40
2022-08-10T23:19:12.383Z,21.40
2022-08-10T23:22:11.528Z,21.40
2022-08-10T23:24:41.748Z,21.30
2022-08-10T23:27:13.227Z,21.30
2022-08-10T23:30:09.733Z,21.30
2022-08-10T23:32:45.223Z,21.40
2022-08-10T23:36:28.168Z,21.40
2022-08-10T23:38:03.291Z,21.40
2022-08-10T23:40:32.071Z,21.30
2022-08-10T23:42:59.702Z,21.30
2022-08-10T23:45:29.183Z,21.30
2022-08-10T23:48:19.892Z,21.30
2022-08-10T23:50:53.388Z,21.30
2022-08-10T23:53:32.569Z,21.30
2022-08-10T23:56:15.213Z,21.30
2022-08-10T23:58:56.165Z,21.30
